Řízení letového provozu České republiky  
Aktualizace dat:  27.02.2020 02:33:27 UTC English version
   METEO Zobrazení stránky:  27.02.2020 02:33:06 UTC  
vysvětlivky
METAR EDDB 270220Z 27010KT 9999 BKN012 BKN041 02/01 Q1001 NOSIG=
METAR EDDC 270220Z 26010KT 230V300 9999 BKN015 BKN027 02/00 Q1002=
METAR EDDE 270220Z 23010KT 9999 FEW020 SCT046 01/M02 Q1004=
METAR EDDF 270220Z 19007KT 9999 VCSH SCT023TCU 03/00 Q1008 NOSIG=
METAR EDDM 270220Z 25013KT 9999 VCSH FEW015 SCT030 00/M02 Q1009 TEMPO 4000 SHSN BKN012TCU=
METAR EDDN 270220Z 25010KT 9999 BKN017 02/M01 Q1007 R28/190094=
METAR EDDP 270220Z 25016KT 9999 FEW013 BKN041 02/00 Q1003 NOSIG=
METAR EDDT 270220Z 27009KT 9999 BKN008 BKN013 02/01 Q1001=
METAR EDQM NIL
METAR EPBY 270230Z 27012KT 9999 BKN012 02/M01 Q0997=
METAR EPGD 270230Z 28014KT 9999 FEW003 SCT013 BKN020 M00/M02 Q0994=
METAR EPKK 270230Z 24010KT 9999 BKN024 02/M01 Q1001=
METAR EPKT 270230Z 25009KT 9999 -SN FEW009 OVC010 01/M01 Q1000=
METAR EPLL 270230Z 26013KT 9999 BKN006 OVC008 01/01 Q0998=
METAR EPPO 270230Z 27011KT 9999 BKN013 02/00 Q0999=
METAR EPRZ 270230Z 27011KT CAVOK 00/M02 Q0999=
METAR EPWA 270230Z 26007KT 240V300 9999 FEW009 BKN013 02/01 Q0998 NOSIG=
METAR EPWR 270230Z 28010KT 9999 FEW020 SCT030 02/01 Q1001=
METAR LHBP 270230Z 29008KT CAVOK 02/M01 Q1002 NOSIG=
METAR LHSM 270215Z AUTO 29006KT CAVOK 01/M00 Q1005=
METAR LKBC 270230Z AUTO 26013KT 9999 FEW019 OVC058 01/M02 Q1005=
METAR LKCV 270230Z 26012KT 9999 -SHRA BKN030 OVC050 02/M01 Q1003 NOSIG RMK BLU BLU=
METAR LKKB 270230Z 23011KT 9999 BKN030 02/M02 Q1003 RMK BLU=
METAR LKKU NIL
METAR LKKV 270200Z 27014KT 9999 BKN008 BKN046 M01/M02 Q1003 RMK REG QNH 0999=
METAR LKLN 270230Z AUTO 24010KT 210V270 9999 BKN063 02/M02 Q1005=
METAR LKMT 270230Z 22008KT 9999 SCT046 00/M02 Q1002 NOSIG RMK REG QNH 0999=
METAR LKNA 270230Z 26010KT CAVOK 00/M03 Q1003 RMK BLU=
METAR LKPD 270230Z 27012KT 9999 SCT032 BKN050 03/M01 Q1003 RMK BLU=
METAR LKPJ 270230Z AUTO 20006KT 9999 FEW031 00/M03 Q1003=
METAR LKPR 270230Z 23015KT 9999 FEW028 BKN036 01/M02 Q1003 NOSIG RMK REG QNH 0999=
METAR LKTB 270230Z VRB01KT CAVOK M01/M03 Q1004 NOSIG RMK REG QNH 0999=
METAR LKVO NIL
METAR LOWI 270220Z AUTO 28003KT 240V320 9999 FEW020 BKN038 M00/M03 Q1010=
METAR LOWL 270220Z AUTO 25016KT 9999 FEW019 SCT034 BKN070 02/M01 Q1007=
METAR LOWS 270220Z AUTO 27009KT 240V300 9999 FEW042 SCT050 BKN080 02/M04 Q1009=
METAR LOWW 270220Z 30015KT 9999 FEW050 03/M01 Q1005 NOSIG=
METAR LZIB 270230Z 29008KT 250V340 9999 FEW026 03/M01 Q1005=
METAR LZKZ 270230Z VRB02KT CAVOK 03/M01 Q1000=
METAR LZMC NIL
METAR LZPP 270230Z AUTO 27007KT 9999 BKN038/// 01/M02 Q1004=
METAR LZSL 270230Z 30006KT 270V330 9999 SCT048 01/M04 Q1001=
METAR LZTT 270230Z 34004KT 310V010 9999 FEW050 M02/M06 Q0999=
METAR LZZI 270230Z VRB01KT 9999 SCT040 OVC050 02/M02 Q1002=